sensor_id;sensor_type;location;lat;lon;timestamp;P1;durP1;ratioP1;P2;durP2;ratioP2
19024;SDS011;9645;51.448;6.260;2022-11-20T00:01:30;22.65;;;9.80;;
19024;SDS011;9645;51.448;6.260;2022-11-20T00:03:57;27.10;;;11.32;;
19024;SDS011;9645;51.448;6.260;2022-11-20T00:06:25;30.23;;;10.52;;
19024;SDS011;9645;51.448;6.260;2022-11-20T00:08:53;27.65;;;11.00;;
19024;SDS011;9645;51.448;6.260;2022-11-20T00:11:23;28.85;;;10.40;;
19024;SDS011;9645;51.448;6.260;2022-11-20T00:13:51;24.92;;;9.52;;
19024;SDS011;9645;51.448;6.260;2022-11-20T00:16:20;30.00;;;10.75;;
19024;SDS011;9645;51.448;6.260;2022-11-20T00:18:50;25.15;;;10.80;;
19024;SDS011;9645;51.448;6.260;2022-11-20T00:21:18;33.10;;;11.07;;
19024;SDS011;9645;51.448;6.260;2022-11-20T00:23:47;26.02;;;11.30;;
19024;SDS011;9645;51.448;6.260;2022-11-20T00:26:15;32.05;;;10.25;;
19024;SDS011;9645;51.448;6.260;2022-11-20T00:28:44;26.77;;;10.27;;
19024;SDS011;9645;51.448;6.260;2022-11-20T00:31:16;31.27;;;10.70;;
19024;SDS011;9645;51.448;6.260;2022-11-20T00:33:43;24.33;;;9.77;;
19024;SDS011;9645;51.448;6.260;2022-11-20T00:36:13;31.13;;;11.10;;
19024;SDS011;9645;51.448;6.260;2022-11-20T00:38:41;33.85;;;11.93;;
19024;SDS011;9645;51.448;6.260;2022-11-20T00:41:10;33.00;;;11.25;;
19024;SDS011;9645;51.448;6.260;2022-11-20T00:43:38;24.08;;;10.57;;
19024;SDS011;9645;51.448;6.260;2022-11-20T00:46:05;25.50;;;10.15;;
19024;SDS011;9645;51.448;6.260;2022-11-20T00:48:34;30.27;;;11.20;;
19024;SDS011;9645;51.448;6.260;2022-11-20T00:51:02;29.23;;;10.95;;
19024;SDS011;9645;51.448;6.260;2022-11-20T00:53:30;32.40;;;12.02;;
19024;SDS011;9645;51.448;6.260;2022-11-20T00:55:58;34.72;;;12.10;;
19024;SDS011;9645;51.448;6.260;2022-11-20T00:58:28;29.08;;;11.68;;
19024;SDS011;9645;51.448;6.260;2022-11-20T01:00:59;26.55;;;10.75;;
19024;SDS011;9645;51.448;6.260;2022-11-20T01:03:27;29.65;;;11.20;;
19024;SDS011;9645;51.448;6.260;2022-11-20T01:05:58;25.52;;;10.70;;
19024;SDS011;9645;51.448;6.260;2022-11-20T01:08:30;35.22;;;12.45;;
19024;SDS011;9645;51.448;6.260;2022-11-20T01:11:01;30.63;;;12.60;;
19024;SDS011;9645;51.448;6.260;2022-11-20T01:13:29;30.90;;;11.68;;
19024;SDS011;9645;51.448;6.260;2022-11-20T01:16:06;26.10;;;10.57;;
19024;SDS011;9645;51.448;6.260;2022-11-20T01:18:35;27.70;;;10.93;;
19024;SDS011;9645;51.448;6.260;2022-11-20T01:21:03;32.15;;;12.20;;
19024;SDS011;9645;51.448;6.260;2022-11-20T01:23:34;34.60;;;11.70;;
19024;SDS011;9645;51.448;6.260;2022-11-20T01:26:02;35.08;;;12.48;;
19024;SDS011;9645;51.448;6.260;2022-11-20T01:28:30;28.08;;;11.18;;
19024;SDS011;9645;51.448;6.260;2022-11-20T01:30:58;29.08;;;11.00;;
19024;SDS011;9645;51.448;6.260;2022-11-20T01:33:25;30.80;;;12.00;;
19024;SDS011;9645;51.448;6.260;2022-11-20T01:35:53;37.10;;;12.85;;
19024;SDS011;9645;51.448;6.260;2022-11-20T01:38:20;24.92;;;10.75;;
19024;SDS011;9645;51.448;6.260;2022-11-20T01:40:54;31.48;;;11.60;;
19024;SDS011;9645;51.448;6.260;2022-11-20T01:43:22;28.45;;;11.25;;
19024;SDS011;9645;51.448;6.260;2022-11-20T01:45:52;32.60;;;11.00;;
19024;SDS011;9645;51.448;6.260;2022-11-20T01:48:29;27.67;;;10.35;;
19024;SDS011;9645;51.448;6.260;2022-11-20T01:50:59;28.05;;;10.68;;
19024;SDS011;9645;51.448;6.260;2022-11-20T01:53:29;29.17;;;10.75;;
19024;SDS011;9645;51.448;6.260;2022-11-20T01:56:00;33.97;;;12.07;;
19024;SDS011;9645;51.448;6.260;2022-11-20T01:58:30;28.70;;;10.15;;
19024;SDS011;9645;51.448;6.260;2022-11-20T02:01:02;30.60;;;11.35;;
19024;SDS011;9645;51.448;6.260;2022-11-20T02:03:30;29.38;;;11.45;;
19024;SDS011;9645;51.448;6.260;2022-11-20T02:06:00;28.85;;;11.40;;
19024;SDS011;9645;51.448;6.260;2022-11-20T02:08:32;34.03;;;11.65;;
19024;SDS011;9645;51.448;6.260;2022-11-20T02:11:01;37.40;;;11.70;;
19024;SDS011;9645;51.448;6.260;2022-11-20T02:13:28;34.67;;;12.40;;
19024;SDS011;9645;51.448;6.260;2022-11-20T02:16:14;32.55;;;11.85;;
19024;SDS011;9645;51.448;6.260;2022-11-20T02:18:44;29.63;;;11.60;;
19024;SDS011;9645;51.448;6.260;2022-11-20T02:21:15;28.23;;;11.30;;
19024;SDS011;9645;51.448;6.260;2022-11-20T02:26:40;29.30;;;11.88;;
19024;SDS011;9645;51.448;6.260;2022-11-20T02:29:10;30.30;;;11.35;;
19024;SDS011;9645;51.448;6.260;2022-11-20T02:31:37;33.40;;;12.50;;
19024;SDS011;9645;51.448;6.260;2022-11-20T02:34:07;27.85;;;11.45;;
19024;SDS011;9645;51.448;6.260;2022-11-20T02:36:34;34.65;;;12.15;;
19024;SDS011;9645;51.448;6.260;2022-11-20T02:39:05;33.92;;;11.73;;
19024;SDS011;9645;51.448;6.260;2022-11-20T02:41:35;30.75;;;11.65;;
19024;SDS011;9645;51.448;6.260;2022-11-20T02:44:04;29.15;;;11.57;;
19024;SDS011;9645;51.448;6.260;2022-11-20T02:46:32;30.83;;;11.55;;
19024;SDS011;9645;51.448;6.260;2022-11-20T02:49:00;29.30;;;11.63;;
19024;SDS011;9645;51.448;6.260;2022-11-20T02:51:28;34.30;;;12.18;;
19024;SDS011;9645;51.448;6.260;2022-11-20T02:53:55;29.15;;;11.32;;
19024;SDS011;9645;51.448;6.260;2022-11-20T02:56:22;27.90;;;10.65;;
19024;SDS011;9645;51.448;6.260;2022-11-20T02:58:50;29.05;;;10.90;;
19024;SDS011;9645;51.448;6.260;2022-11-20T03:01:17;32.75;;;12.30;;
19024;SDS011;9645;51.448;6.260;2022-11-20T03:03:44;23.75;;;10.00;;
19024;SDS011;9645;51.448;6.260;2022-11-20T03:06:13;34.33;;;12.20;;
19024;SDS011;9645;51.448;6.260;2022-11-20T03:08:40;31.60;;;11.63;;
19024;SDS011;9645;51.448;6.260;2022-11-20T03:11:08;35.85;;;11.73;;
19024;SDS011;9645;51.448;6.260;2022-11-20T03:13:35;34.25;;;11.45;;
19024;SDS011;9645;51.448;6.260;2022-11-20T03:16:07;32.90;;;12.05;;
19024;SDS011;9645;51.448;6.260;2022-11-20T03:18:36;27.17;;;10.95;;
19024;SDS011;9645;51.448;6.260;2022-11-20T03:21:04;32.45;;;11.27;;
19024;SDS011;9645;51.448;6.260;2022-11-20T03:23:31;26.00;;;11.20;;
19024;SDS011;9645;51.448;6.260;2022-11-20T03:26:09;35.92;;;12.05;;
19024;SDS011;9645;51.448;6.260;2022-11-20T03:28:37;32.30;;;10.85;;
19024;SDS011;9645;51.448;6.260;2022-11-20T03:31:09;28.00;;;10.30;;
19024;SDS011;9645;51.448;6.260;2022-11-20T03:33:37;30.92;;;12.23;;
19024;SDS011;9645;51.448;6.260;2022-11-20T03:36:06;32.60;;;11.88;;
19024;SDS011;9645;51.448;6.260;2022-11-20T03:38:34;29.52;;;12.07;;
19024;SDS011;9645;51.448;6.260;2022-11-20T03:41:02;32.80;;;11.75;;
19024;SDS011;9645;51.448;6.260;2022-11-20T03:43:30;30.48;;;11.52;;
19024;SDS011;9645;51.448;6.260;2022-11-20T03:45:58;33.03;;;11.48;;
19024;SDS011;9645;51.448;6.260;2022-11-20T03:48:26;28.63;;;11.15;;
19024;SDS011;9645;51.448;6.260;2022-11-20T03:51:05;32.88;;;11.60;;
19024;SDS011;9645;51.448;6.260;2022-11-20T03:53:34;34.13;;;11.82;;
19024;SDS011;9645;51.448;6.260;2022-11-20T03:56:01;28.65;;;11.38;;
19024;SDS011;9645;51.448;6.260;2022-11-20T03:58:29;35.45;;;12.40;;
19024;SDS011;9645;51.448;6.260;2022-11-20T04:00:56;31.75;;;11.90;;
19024;SDS011;9645;51.448;6.260;2022-11-20T04:03:23;32.50;;;12.05;;
19024;SDS011;9645;51.448;6.260;2022-11-20T04:05:51;29.83;;;12.38;;
19024;SDS011;9645;51.448;6.260;2022-11-20T04:08:18;27.98;;;10.73;;
19024;SDS011;9645;51.448;6.260;2022-11-20T04:10:45;31.25;;;11.52;;
19024;SDS011;9645;51.448;6.260;2022-11-20T04:13:12;24.35;;;10.35;;
19024;SDS011;9645;51.448;6.260;2022-11-20T04:15:39;30.17;;;11.70;;
19024;SDS011;9645;51.448;6.260;2022-11-20T04:18:06;35.83;;;13.10;;
19024;SDS011;9645;51.448;6.260;2022-11-20T04:20:33;29.08;;;11.35;;
19024;SDS011;9645;51.448;6.260;2022-11-20T04:23:02;33.42;;;12.18;;
19024;SDS011;9645;51.448;6.260;2022-11-20T04:25:29;29.90;;;12.25;;
19024;SDS011;9645;51.448;6.260;2022-11-20T04:27:56;33.20;;;12.85;;
19024;SDS011;9645;51.448;6.260;2022-11-20T04:30:23;34.42;;;11.98;;
19024;SDS011;9645;51.448;6.260;2022-11-20T04:32:50;35.58;;;13.10;;
19024;SDS011;9645;51.448;6.260;2022-11-20T04:35:17;35.42;;;13.30;;
19024;SDS011;9645;51.448;6.260;2022-11-20T04:37:44;30.95;;;12.20;;
19024;SDS011;9645;51.448;6.260;2022-11-20T04:40:13;30.25;;;11.85;;
19024;SDS011;9645;51.448;6.260;2022-11-20T04:42:40;27.58;;;11.52;;
19024;SDS011;9645;51.448;6.260;2022-11-20T04:45:07;41.15;;;13.00;;
19024;SDS011;9645;51.448;6.260;2022-11-20T04:47:34;33.40;;;14.07;;
19024;SDS011;9645;51.448;6.260;2022-11-20T04:50:01;30.90;;;11.43;;
19024;SDS011;9645;51.448;6.260;2022-11-20T04:52:28;38.22;;;14.07;;
19024;SDS011;9645;51.448;6.260;2022-11-20T04:54:55;33.65;;;13.10;;
19024;SDS011;9645;51.448;6.260;2022-11-20T04:57:24;36.00;;;13.40;;
19024;SDS011;9645;51.448;6.260;2022-11-20T04:59:50;33.20;;;12.10;;
19024;SDS011;9645;51.448;6.260;2022-11-20T05:02:17;36.40;;;13.98;;
19024;SDS011;9645;51.448;6.260;2022-11-20T05:04:44;27.48;;;11.38;;
19024;SDS011;9645;51.448;6.260;2022-11-20T05:07:11;36.75;;;12.63;;
19024;SDS011;9645;51.448;6.260;2022-11-20T05:09:38;29.42;;;12.95;;
19024;SDS011;9645;51.448;6.260;2022-11-20T05:12:07;34.33;;;13.50;;
19024;SDS011;9645;51.448;6.260;2022-11-20T05:14:35;33.50;;;12.77;;
19024;SDS011;9645;51.448;6.260;2022-11-20T05:17:02;32.55;;;13.65;;
19024;SDS011;9645;51.448;6.260;2022-11-20T05:19:29;33.95;;;14.30;;
19024;SDS011;9645;51.448;6.260;2022-11-20T05:21:56;33.70;;;13.30;;
19024;SDS011;9645;51.448;6.260;2022-11-20T05:24:23;32.28;;;12.68;;
19024;SDS011;9645;51.448;6.260;2022-11-20T05:26:50;30.75;;;13.70;;
19024;SDS011;9645;51.448;6.260;2022-11-20T05:29:17;34.95;;;13.32;;
19024;SDS011;9645;51.448;6.260;2022-11-20T05:31:45;31.10;;;13.20;;
19024;SDS011;9645;51.448;6.260;2022-11-20T05:34:12;36.38;;;13.43;;
19024;SDS011;9645;51.448;6.260;2022-11-20T05:36:39;27.27;;;12.35;;
19024;SDS011;9645;51.448;6.260;2022-11-20T05:39:06;37.78;;;12.70;;
19024;SDS011;9645;51.448;6.260;2022-11-20T05:41:33;32.67;;;13.13;;
19024;SDS011;9645;51.448;6.260;2022-11-20T05:44:00;39.67;;;14.30;;
19024;SDS011;9645;51.448;6.260;2022-11-20T05:46:27;33.17;;;13.00;;
19024;SDS011;9645;51.448;6.260;2022-11-20T05:48:55;36.33;;;14.27;;
19024;SDS011;9645;51.448;6.260;2022-11-20T05:51:23;34.60;;;13.30;;
19024;SDS011;9645;51.448;6.260;2022-11-20T05:53:51;31.50;;;13.07;;
19024;SDS011;9645;51.448;6.260;2022-11-20T05:56:18;38.22;;;14.68;;
19024;SDS011;9645;51.448;6.260;2022-11-20T05:58:46;34.78;;;13.15;;
19024;SDS011;9645;51.448;6.260;2022-11-20T06:01:15;36.30;;;13.85;;
19024;SDS011;9645;51.448;6.260;2022-11-20T06:03:44;40.60;;;13.73;;
19024;SDS011;9645;51.448;6.260;2022-11-20T06:06:14;40.30;;;14.13;;
19024;SDS011;9645;51.448;6.260;2022-11-20T06:08:43;32.28;;;14.40;;
19024;SDS011;9645;51.448;6.260;2022-11-20T06:11:11;32.40;;;13.38;;
19024;SDS011;9645;51.448;6.260;2022-11-20T06:13:39;38.63;;;14.05;;
19024;SDS011;9645;51.448;6.260;2022-11-20T06:16:07;29.23;;;13.02;;
19024;SDS011;9645;51.448;6.260;2022-11-20T06:18:34;35.28;;;14.40;;
19024;SDS011;9645;51.448;6.260;2022-11-20T06:21:02;32.47;;;12.90;;
19024;SDS011;9645;51.448;6.260;2022-11-20T06:23:33;44.00;;;15.00;;
19024;SDS011;9645;51.448;6.260;2022-11-20T06:26:01;35.50;;;13.68;;
19024;SDS011;9645;51.448;6.260;2022-11-20T06:28:32;33.00;;;12.85;;
19024;SDS011;9645;51.448;6.260;2022-11-20T06:31:10;36.85;;;15.00;;
19024;SDS011;9645;51.448;6.260;2022-11-20T06:33:38;36.22;;;13.90;;
19024;SDS011;9645;51.448;6.260;2022-11-20T06:36:05;31.88;;;13.23;;
19024;SDS011;9645;51.448;6.260;2022-11-20T06:38:34;43.20;;;13.23;;
19024;SDS011;9645;51.448;6.260;2022-11-20T06:41:01;33.95;;;13.82;;
19024;SDS011;9645;51.448;6.260;2022-11-20T06:43:30;37.40;;;14.75;;
19024;SDS011;9645;51.448;6.260;2022-11-20T06:45:57;34.10;;;12.60;;
19024;SDS011;9645;51.448;6.260;2022-11-20T06:48:25;34.33;;;13.70;;
19024;SDS011;9645;51.448;6.260;2022-11-20T06:50:53;28.50;;;12.57;;
19024;SDS011;9645;51.448;6.260;2022-11-20T06:53:20;27.67;;;12.65;;
19024;SDS011;9645;51.448;6.260;2022-11-20T06:55:50;39.90;;;13.32;;
19024;SDS011;9645;51.448;6.260;2022-11-20T06:58:17;28.63;;;10.77;;
19024;SDS011;9645;51.448;6.260;2022-11-20T07:00:44;27.95;;;12.40;;
19024;SDS011;9645;51.448;6.260;2022-11-20T07:03:12;30.92;;;13.05;;
19024;SDS011;9645;51.448;6.260;2022-11-20T07:05:39;32.35;;;12.98;;
19024;SDS011;9645;51.448;6.260;2022-11-20T07:08:06;32.50;;;12.20;;
19024;SDS011;9645;51.448;6.260;2022-11-20T07:10:34;36.83;;;14.10;;
19024;SDS011;9645;51.448;6.260;2022-11-20T07:13:03;35.45;;;13.65;;
19024;SDS011;9645;51.448;6.260;2022-11-20T07:15:30;41.25;;;15.70;;
19024;SDS011;9645;51.448;6.260;2022-11-20T07:17:58;37.38;;;13.93;;
19024;SDS011;9645;51.448;6.260;2022-11-20T07:20:25;38.58;;;14.02;;
19024;SDS011;9645;51.448;6.260;2022-11-20T07:22:53;33.03;;;12.40;;
19024;SDS011;9645;51.448;6.260;2022-11-20T07:25:21;39.58;;;15.95;;
19024;SDS011;9645;51.448;6.260;2022-11-20T07:27:48;35.60;;;14.10;;
19024;SDS011;9645;51.448;6.260;2022-11-20T07:30:16;38.90;;;14.20;;
19024;SDS011;9645;51.448;6.260;2022-11-20T07:32:45;36.65;;;14.45;;
19024;SDS011;9645;51.448;6.260;2022-11-20T07:35:13;37.10;;;15.38;;
19024;SDS011;9645;51.448;6.260;2022-11-20T07:37:40;36.40;;;14.82;;
19024;SDS011;9645;51.448;6.260;2022-11-20T07:40:07;34.85;;;13.80;;
19024;SDS011;9645;51.448;6.260;2022-11-20T07:42:34;41.65;;;15.18;;
19024;SDS011;9645;51.448;6.260;2022-11-20T07:45:01;42.00;;;14.82;;
19024;SDS011;9645;51.448;6.260;2022-11-20T07:47:35;38.63;;;16.08;;
19024;SDS011;9645;51.448;6.260;2022-11-20T07:50:02;42.67;;;14.98;;
19024;SDS011;9645;51.448;6.260;2022-11-20T07:52:30;45.05;;;15.95;;
19024;SDS011;9645;51.448;6.260;2022-11-20T07:54:57;36.55;;;14.70;;
19024;SDS011;9645;51.448;6.260;2022-11-20T07:57:24;36.03;;;15.63;;
19024;SDS011;9645;51.448;6.260;2022-11-20T07:59:51;35.78;;;14.88;;
19024;SDS011;9645;51.448;6.260;2022-11-20T08:02:18;35.92;;;14.00;;
19024;SDS011;9645;51.448;6.260;2022-11-20T08:04:46;42.25;;;15.25;;
19024;SDS011;9645;51.448;6.260;2022-11-20T08:07:13;39.63;;;16.10;;
19024;SDS011;9645;51.448;6.260;2022-11-20T08:09:40;43.30;;;16.23;;
19024;SDS011;9645;51.448;6.260;2022-11-20T08:12:07;42.17;;;17.90;;
19024;SDS011;9645;51.448;6.260;2022-11-20T08:14:51;38.60;;;15.13;;
19024;SDS011;9645;51.448;6.260;2022-11-20T08:17:20;32.40;;;14.38;;
19024;SDS011;9645;51.448;6.260;2022-11-20T08:19:48;34.22;;;14.77;;
19024;SDS011;9645;51.448;6.260;2022-11-20T08:22:15;35.90;;;14.48;;
19024;SDS011;9645;51.448;6.260;2022-11-20T08:24:42;40.88;;;14.88;;
19024;SDS011;9645;51.448;6.260;2022-11-20T08:27:09;41.63;;;14.20;;
19024;SDS011;9645;51.448;6.260;2022-11-20T08:29:36;37.60;;;14.35;;
19024;SDS011;9645;51.448;6.260;2022-11-20T08:32:03;42.05;;;15.20;;
19024;SDS011;9645;51.448;6.260;2022-11-20T08:34:30;37.65;;;15.32;;
19024;SDS011;9645;51.448;6.260;2022-11-20T08:36:59;47.47;;;15.68;;
19024;SDS011;9645;51.448;6.260;2022-11-20T08:39:28;38.28;;;16.23;;
19024;SDS011;9645;51.448;6.260;2022-11-20T08:41:55;41.72;;;17.48;;
19024;SDS011;9645;51.448;6.260;2022-11-20T08:44:22;47.15;;;16.35;;
19024;SDS011;9645;51.448;6.260;2022-11-20T08:46:48;34.95;;;13.93;;
19024;SDS011;9645;51.448;6.260;2022-11-20T08:49:15;37.33;;;15.18;;
19024;SDS011;9645;51.448;6.260;2022-11-20T08:51:43;37.70;;;15.05;;
19024;SDS011;9645;51.448;6.260;2022-11-20T08:54:11;38.20;;;14.88;;
19024;SDS011;9645;51.448;6.260;2022-11-20T08:56:38;34.45;;;15.38;;
19024;SDS011;9645;51.448;6.260;2022-11-20T08:59:05;36.88;;;14.70;;
19024;SDS011;9645;51.448;6.260;2022-11-20T09:01:32;42.08;;;15.80;;
19024;SDS011;9645;51.448;6.260;2022-11-20T09:04:00;35.03;;;13.90;;
19024;SDS011;9645;51.448;6.260;2022-11-20T09:06:28;36.33;;;14.38;;
19024;SDS011;9645;51.448;6.260;2022-11-20T09:08:55;42.83;;;14.23;;
19024;SDS011;9645;51.448;6.260;2022-11-20T09:11:24;38.50;;;14.85;;
19024;SDS011;9645;51.448;6.260;2022-11-20T09:13:51;38.03;;;15.52;;
19024;SDS011;9645;51.448;6.260;2022-11-20T09:16:18;41.00;;;14.80;;
19024;SDS011;9645;51.448;6.260;2022-11-20T09:18:45;34.95;;;14.55;;
19024;SDS011;9645;51.448;6.260;2022-11-20T09:21:12;35.80;;;14.60;;
19024;SDS011;9645;51.448;6.260;2022-11-20T09:23:39;44.50;;;15.57;;
19024;SDS011;9645;51.448;6.260;2022-11-20T09:26:08;32.53;;;14.95;;
19024;SDS011;9645;51.448;6.260;2022-11-20T09:28:38;36.67;;;15.18;;
19024;SDS011;9645;51.448;6.260;2022-11-20T09:31:06;34.42;;;14.60;;
19024;SDS011;9645;51.448;6.260;2022-11-20T09:33:33;33.53;;;14.43;;
19024;SDS011;9645;51.448;6.260;2022-11-20T09:36:01;41.03;;;15.77;;
19024;SDS011;9645;51.448;6.260;2022-11-20T09:38:28;36.78;;;15.90;;
19024;SDS011;9645;51.448;6.260;2022-11-20T09:40:56;31.75;;;13.95;;
19024;SDS011;9645;51.448;6.260;2022-11-20T09:43:32;38.42;;;15.00;;
19024;SDS011;9645;51.448;6.260;2022-11-20T09:46:12;38.55;;;15.00;;
19024;SDS011;9645;51.448;6.260;2022-11-20T09:48:47;35.53;;;15.63;;
19024;SDS011;9645;51.448;6.260;2022-11-20T09:51:23;38.00;;;15.90;;
19024;SDS011;9645;51.448;6.260;2022-11-20T09:54:05;38.63;;;14.05;;
19024;SDS011;9645;51.448;6.260;2022-11-20T09:56:39;38.58;;;15.45;;
19024;SDS011;9645;51.448;6.260;2022-11-20T09:59:12;36.08;;;14.90;;
19024;SDS011;9645;51.448;6.260;2022-11-20T10:01:46;40.60;;;15.10;;
19024;SDS011;9645;51.448;6.260;2022-11-20T10:04:15;34.38;;;14.73;;
19024;SDS011;9645;51.448;6.260;2022-11-20T10:06:50;38.92;;;14.95;;
19024;SDS011;9645;51.448;6.260;2022-11-20T10:09:23;48.65;;;16.92;;
19024;SDS011;9645;51.448;6.260;2022-11-20T10:12:00;41.45;;;17.58;;
19024;SDS011;9645;51.448;6.260;2022-11-20T10:14:39;42.42;;;16.40;;
19024;SDS011;9645;51.448;6.260;2022-11-20T10:17:16;39.95;;;16.90;;
19024;SDS011;9645;51.448;6.260;2022-11-20T10:19:56;36.83;;;15.52;;
19024;SDS011;9645;51.448;6.260;2022-11-20T10:22:40;37.47;;;16.17;;
19024;SDS011;9645;51.448;6.260;2022-11-20T10:25:18;39.78;;;15.63;;
19024;SDS011;9645;51.448;6.260;2022-11-20T10:28:02;55.65;;;20.02;;
19024;SDS011;9645;51.448;6.260;2022-11-20T10:30:43;39.70;;;15.93;;
19024;SDS011;9645;51.448;6.260;2022-11-20T10:33:13;39.42;;;15.70;;
19024;SDS011;9645;51.448;6.260;2022-11-20T10:35:45;44.08;;;16.30;;
19024;SDS011;9645;51.448;6.260;2022-11-20T10:38:18;64.85;;;19.35;;
19024;SDS011;9645;51.448;6.260;2022-11-20T10:40:50;54.63;;;19.48;;
19024;SDS011;9645;51.448;6.260;2022-11-20T10:43:41;61.72;;;18.40;;
19024;SDS011;9645;51.448;6.260;2022-11-20T10:46:12;55.25;;;17.75;;
19024;SDS011;9645;51.448;6.260;2022-11-20T10:48:42;68.97;;;20.00;;
19024;SDS011;9645;51.448;6.260;2022-11-20T10:51:15;74.47;;;19.67;;
19024;SDS011;9645;51.448;6.260;2022-11-20T10:53:54;63.90;;;18.63;;
19024;SDS011;9645;51.448;6.260;2022-11-20T10:56:28;99.85;;;22.10;;
19024;SDS011;9645;51.448;6.260;2022-11-20T10:59:10;106.95;;;23.02;;
19024;SDS011;9645;51.448;6.260;2022-11-20T11:01:53;72.07;;;20.58;;
19024;SDS011;9645;51.448;6.260;2022-11-20T11:04:29;77.00;;;22.83;;
19024;SDS011;9645;51.448;6.260;2022-11-20T11:07:05;96.20;;;22.33;;
19024;SDS011;9645;51.448;6.260;2022-11-20T11:09:37;92.72;;;22.58;;
19024;SDS011;9645;51.448;6.260;2022-11-20T11:12:07;98.85;;;25.05;;
19024;SDS011;9645;51.448;6.260;2022-11-20T11:14:41;92.75;;;22.92;;
19024;SDS011;9645;51.448;6.260;2022-11-20T11:17:20;93.50;;;21.40;;
19024;SDS011;9645;51.448;6.260;2022-11-20T11:20:00;85.53;;;23.52;;
19024;SDS011;9645;51.448;6.260;2022-11-20T11:22:29;79.82;;;21.92;;
19024;SDS011;9645;51.448;6.260;2022-11-20T11:24:57;91.43;;;23.63;;
19024;SDS011;9645;51.448;6.260;2022-11-20T11:27:25;101.25;;;22.33;;
19024;SDS011;9645;51.448;6.260;2022-11-20T11:30:01;108.10;;;28.38;;
19024;SDS011;9645;51.448;6.260;2022-11-20T11:32:31;94.68;;;21.48;;
19024;SDS011;9645;51.448;6.260;2022-11-20T11:34:59;105.95;;;24.15;;
19024;SDS011;9645;51.448;6.260;2022-11-20T11:37:27;74.45;;;22.67;;
19024;SDS011;9645;51.448;6.260;2022-11-20T11:40:02;101.53;;;22.48;;
19024;SDS011;9645;51.448;6.260;2022-11-20T11:42:30;88.72;;;21.83;;
19024;SDS011;9645;51.448;6.260;2022-11-20T11:44:58;97.72;;;23.40;;
19024;SDS011;9645;51.448;6.260;2022-11-20T11:47:35;101.95;;;24.55;;
19024;SDS011;9645;51.448;6.260;2022-11-20T11:50:13;92.68;;;23.48;;
19024;SDS011;9645;51.448;6.260;2022-11-20T11:52:44;69.28;;;21.92;;
19024;SDS011;9645;51.448;6.260;2022-11-20T11:55:17;82.78;;;24.83;;
19024;SDS011;9645;51.448;6.260;2022-11-20T11:57:55;70.65;;;21.42;;
19024;SDS011;9645;51.448;6.260;2022-11-20T12:00:40;78.75;;;22.42;;
19024;SDS011;9645;51.448;6.260;2022-11-20T12:03:21;84.90;;;22.77;;
19024;SDS011;9645;51.448;6.260;2022-11-20T12:05:57;61.55;;;18.83;;
19024;SDS011;9645;51.448;6.260;2022-11-20T12:08:29;120.13;;;31.45;;
19024;SDS011;9645;51.448;6.260;2022-11-20T12:11:06;100.25;;;28.30;;
19024;SDS011;9645;51.448;6.260;2022-11-20T12:13:47;90.22;;;25.15;;
19024;SDS011;9645;51.448;6.260;2022-11-20T12:16:19;106.38;;;28.08;;
19024;SDS011;9645;51.448;6.260;2022-11-20T12:18:49;68.28;;;21.75;;
19024;SDS011;9645;51.448;6.260;2022-11-20T12:21:19;72.78;;;19.70;;
19024;SDS011;9645;51.448;6.260;2022-11-20T12:23:55;62.53;;;20.45;;
19024;SDS011;9645;51.448;6.260;2022-11-20T12:26:48;82.30;;;20.38;;
19024;SDS011;9645;51.448;6.260;2022-11-20T12:38:36;68.05;;;20.55;;
19024;SDS011;9645;51.448;6.260;2022-11-20T12:41:22;60.25;;;20.17;;
19024;SDS011;9645;51.448;6.260;2022-11-20T12:44:25;66.90;;;18.48;;
19024;SDS011;9645;51.448;6.260;2022-11-20T12:47:28;60.30;;;19.70;;
19024;SDS011;9645;51.448;6.260;2022-11-20T12:50:08;57.08;;;19.45;;
19024;SDS011;9645;51.448;6.260;2022-11-20T12:52:45;65.45;;;21.55;;
19024;SDS011;9645;51.448;6.260;2022-11-20T12:55:23;59.30;;;20.92;;
19024;SDS011;9645;51.448;6.260;2022-11-20T12:58:04;65.32;;;20.17;;
19024;SDS011;9645;51.448;6.260;2022-11-20T13:00:36;57.33;;;19.17;;
19024;SDS011;9645;51.448;6.260;2022-11-20T13:06:12;66.10;;;21.45;;
19024;SDS011;9645;51.448;6.260;2022-11-20T13:08:44;68.40;;;22.15;;
19024;SDS011;9645;51.448;6.260;2022-11-20T13:11:17;64.70;;;21.13;;
19024;SDS011;9645;51.448;6.260;2022-11-20T13:13:56;71.40;;;23.30;;
19024;SDS011;9645;51.448;6.260;2022-11-20T13:16:37;61.58;;;21.33;;
19024;SDS011;9645;51.448;6.260;2022-11-20T13:19:13;61.00;;;21.27;;
19024;SDS011;9645;51.448;6.260;2022-11-20T13:21:45;62.28;;;20.30;;
19024;SDS011;9645;51.448;6.260;2022-11-20T13:24:23;69.78;;;21.02;;
19024;SDS011;9645;51.448;6.260;2022-11-20T13:27:05;69.03;;;19.75;;
19024;SDS011;9645;51.448;6.260;2022-11-20T13:29:46;64.10;;;18.63;;
19024;SDS011;9645;51.448;6.260;2022-11-20T13:32:29;52.90;;;18.48;;
19024;SDS011;9645;51.448;6.260;2022-11-20T13:34:58;69.20;;;20.80;;
19024;SDS011;9645;51.448;6.260;2022-11-20T13:37:29;74.07;;;23.77;;
19024;SDS011;9645;51.448;6.260;2022-11-20T13:40:19;61.80;;;20.15;;
19024;SDS011;9645;51.448;6.260;2022-11-20T13:42:54;74.13;;;21.38;;
19024;SDS011;9645;51.448;6.260;2022-11-20T13:45:27;78.72;;;26.98;;
19024;SDS011;9645;51.448;6.260;2022-11-20T13:47:56;65.70;;;20.15;;
19024;SDS011;9645;51.448;6.260;2022-11-20T13:50:29;75.25;;;19.80;;
19024;SDS011;9645;51.448;6.260;2022-11-20T13:53:08;64.22;;;19.90;;
19024;SDS011;9645;51.448;6.260;2022-11-20T13:55:53;92.28;;;23.60;;
19024;SDS011;9645;51.448;6.260;2022-11-20T13:58:26;69.05;;;21.77;;
19024;SDS011;9645;51.448;6.260;2022-11-20T14:01:08;71.53;;;20.60;;
19024;SDS011;9645;51.448;6.260;2022-11-20T14:03:40;69.93;;;21.80;;
19024;SDS011;9645;51.448;6.260;2022-11-20T14:06:11;52.58;;;17.85;;
19024;SDS011;9645;51.448;6.260;2022-11-20T14:08:41;71.18;;;19.98;;
19024;SDS011;9645;51.448;6.260;2022-11-20T14:11:14;60.55;;;19.30;;
19024;SDS011;9645;51.448;6.260;2022-11-20T14:13:53;63.80;;;21.48;;
19024;SDS011;9645;51.448;6.260;2022-11-20T14:16:22;63.33;;;19.30;;
19024;SDS011;9645;51.448;6.260;2022-11-20T14:18:50;66.10;;;20.02;;
19024;SDS011;9645;51.448;6.260;2022-11-20T14:21:24;74.80;;;22.40;;
19024;SDS011;9645;51.448;6.260;2022-11-20T14:23:52;73.97;;;21.75;;
19024;SDS011;9645;51.448;6.260;2022-11-20T14:26:22;69.65;;;20.75;;
19024;SDS011;9645;51.448;6.260;2022-11-20T14:28:49;55.28;;;19.23;;
19024;SDS011;9645;51.448;6.260;2022-11-20T14:31:21;59.47;;;20.05;;
19024;SDS011;9645;51.448;6.260;2022-11-20T14:33:50;67.32;;;21.02;;
19024;SDS011;9645;51.448;6.260;2022-11-20T14:36:18;105.95;;;31.70;;
19024;SDS011;9645;51.448;6.260;2022-11-20T14:38:47;66.82;;;23.17;;
19024;SDS011;9645;51.448;6.260;2022-11-20T14:41:16;70.28;;;23.67;;
19024;SDS011;9645;51.448;6.260;2022-11-20T14:43:47;67.82;;;20.92;;
19024;SDS011;9645;51.448;6.260;2022-11-20T14:46:16;66.43;;;20.23;;
19024;SDS011;9645;51.448;6.260;2022-11-20T14:48:45;74.22;;;22.52;;
19024;SDS011;9645;51.448;6.260;2022-11-20T14:51:28;67.40;;;22.38;;
19024;SDS011;9645;51.448;6.260;2022-11-20T14:54:07;58.92;;;19.70;;
19024;SDS011;9645;51.448;6.260;2022-11-20T14:56:37;66.43;;;20.83;;
19024;SDS011;9645;51.448;6.260;2022-11-20T14:59:10;62.50;;;18.67;;
19024;SDS011;9645;51.448;6.260;2022-11-20T15:01:37;61.85;;;19.98;;
19024;SDS011;9645;51.448;6.260;2022-11-20T15:04:09;90.00;;;27.85;;
19024;SDS011;9645;51.448;6.260;2022-11-20T15:06:37;76.35;;;25.45;;
19024;SDS011;9645;51.448;6.260;2022-11-20T15:09:14;77.88;;;22.33;;